createdAt,value
2018-05-31T00:01:24.359Z,68.60
2018-05-31T00:03:52.534Z,68.60
2018-05-31T00:06:21.942Z,70.80
2018-05-31T00:08:49.519Z,68.10
2018-05-31T00:11:17.131Z,69.60
2018-05-31T00:13:44.715Z,69.50
2018-05-31T00:16:12.315Z,70.00
2018-05-31T00:18:39.909Z,70.30
2018-05-31T00:21:07.511Z,69.00
2018-05-31T00:23:35.095Z,71.20
2018-05-31T00:26:02.727Z,69.60
2018-05-31T00:28:30.319Z,69.00
2018-05-31T00:30:57.924Z,69.30
2018-05-31T00:33:25.498Z,70.60
2018-05-31T00:35:53.106Z,71.10
2018-05-31T00:38:20.699Z,70.30
2018-05-31T00:40:49.079Z,68.90
2018-05-31T00:43:17.429Z,68.10
2018-05-31T00:45:45.032Z,68.10
2018-05-31T00:48:12.619Z,67.30
2018-05-31T00:50:40.240Z,68.00
2018-05-31T00:53:08.569Z,67.90
2018-05-31T00:55:47.863Z,67.70
2018-05-31T00:58:15.440Z,68.00
2018-05-31T01:00:43.068Z,68.70
2018-05-31T01:03:10.656Z,69.00
2018-05-31T01:05:38.355Z,70.70
2018-05-31T01:08:05.939Z,69.50
2018-05-31T01:10:33.658Z,67.80
2018-05-31T01:13:01.241Z,67.40
2018-05-31T01:15:28.846Z,69.40
2018-05-31T01:17:56.431Z,71.00
2018-05-31T01:20:24.014Z,69.30
2018-05-31T01:22:51.627Z,69.30
2018-05-31T01:25:20.096Z,69.80
2018-05-31T01:27:47.698Z,68.60
2018-05-31T01:30:15.280Z,68.80
2018-05-31T01:32:42.891Z,67.40
2018-05-31T01:35:10.476Z,69.30
2018-05-31T01:37:38.082Z,68.50
2018-05-31T01:40:05.720Z,67.20
2018-05-31T01:42:33.334Z,70.00
2018-05-31T01:45:00.925Z,68.60
2018-05-31T01:47:28.536Z,68.80
2018-05-31T01:49:56.879Z,69.20
2018-05-31T01:52:24.495Z,69.20
2018-05-31T01:54:52.073Z,70.10
2018-05-31T01:57:19.681Z,73.20
2018-05-31T01:59:47.255Z,73.30
2018-05-31T02:02:14.967Z,71.00
2018-05-31T02:04:43.948Z,72.20
2018-05-31T02:07:12.327Z,73.90
2018-05-31T02:09:39.895Z,74.00
2018-05-31T02:12:07.503Z,71.80
2018-05-31T02:14:35.850Z,73.60
2018-05-31T02:17:03.466Z,73.60
2018-05-31T02:19:31.039Z,73.00
2018-05-31T02:21:58.645Z,72.60
2018-05-31T02:24:26.995Z,74.30
2018-05-31T02:26:56.119Z,72.50
2018-05-31T02:29:24.481Z,74.80
2018-05-31T02:31:52.068Z,74.70
2018-05-31T02:34:20.436Z,72.90
2018-05-31T02:36:48.016Z,72.80
2018-05-31T02:39:15.612Z,73.90
2018-05-31T02:41:43.199Z,73.70
2018-05-31T02:44:10.811Z,73.60
2018-05-31T02:46:38.387Z,73.00
2018-05-31T02:49:05.985Z,73.90
2018-05-31T02:51:33.555Z,73.70
2018-05-31T02:54:01.155Z,73.50
2018-05-31T02:56:29.487Z,74.70
2018-05-31T02:58:57.093Z,74.60
2018-05-31T03:01:24.666Z,75.30
2018-05-31T03:03:52.279Z,74.80
2018-05-31T03:06:20.619Z,76.00
2018-05-31T03:08:48.228Z,75.70
2018-05-31T03:11:15.816Z,76.20
2018-05-31T03:13:43.412Z,76.60
2018-05-31T03:16:10.981Z,75.60
2018-05-31T03:18:39.351Z,74.00
2018-05-31T03:21:06.944Z,74.20
2018-05-31T03:23:34.549Z,74.20
2018-05-31T03:26:02.131Z,73.90
2018-05-31T03:28:30.499Z,76.00
2018-05-31T03:30:58.084Z,76.60
2018-05-31T03:33:25.695Z,73.50
2018-05-31T03:35:53.278Z,73.20
2018-05-31T03:38:20.866Z,74.70
2018-05-31T03:40:48.487Z,74.20
2018-05-31T03:43:16.060Z,74.20
2018-05-31T03:45:43.672Z,77.70
2018-05-31T03:48:11.265Z,77.10
2018-05-31T03:50:38.866Z,74.90
2018-05-31T03:53:07.231Z,74.80
2018-05-31T03:55:35.612Z,76.10
2018-05-31T03:58:03.962Z,73.90
2018-05-31T04:00:31.587Z,73.80
2018-05-31T04:02:59.170Z,75.50
2018-05-31T04:05:26.871Z,74.50
2018-05-31T04:07:55.221Z,76.80
2018-05-31T04:10:22.840Z,76.80
2018-05-31T04:12:50.426Z,74.40
2018-05-31T04:15:19.703Z,77.40
2018-05-31T04:17:47.284Z,75.60
2018-05-31T04:20:14.894Z,74.10
2018-05-31T04:22:43.239Z,75.40
2018-05-31T04:25:10.843Z,75.40
2018-05-31T04:27:38.462Z,76.00
2018-05-31T04:30:06.059Z,78.20
2018-05-31T04:32:33.626Z,76.30
2018-05-31T04:35:01.236Z,77.40
2018-05-31T04:37:28.807Z,76.30
2018-05-31T04:39:57.191Z,77.60
2018-05-31T04:42:24.827Z,77.30
2018-05-31T04:44:52.392Z,77.50
2018-05-31T04:47:19.980Z,77.30
2018-05-31T04:49:47.591Z,79.20
2018-05-31T04:52:15.178Z,78.40
2018-05-31T04:54:42.754Z,76.10
2018-05-31T04:57:10.350Z,77.30
2018-05-31T04:59:37.924Z,78.70
2018-05-31T05:02:05.522Z,77.50
2018-05-31T05:04:33.871Z,78.80
2018-05-31T05:07:01.470Z,78.30
2018-05-31T05:09:29.055Z,77.70
2018-05-31T05:11:56.675Z,79.50
2018-05-31T05:14:24.257Z,78.30
2018-05-31T05:16:51.853Z,78.00
2018-05-31T05:19:19.444Z,79.40
2018-05-31T05:21:47.050Z,78.90
2018-05-31T05:24:14.661Z,77.70
2018-05-31T05:26:42.268Z,77.00
2018-05-31T05:29:09.839Z,75.30
2018-05-31T05:31:37.439Z,79.20
2018-05-31T05:34:05.027Z,77.80
2018-05-31T05:36:32.633Z,78.20
2018-05-31T05:39:00.243Z,79.50
2018-05-31T05:41:27.837Z,77.50
2018-05-31T05:43:56.192Z,76.20
2018-05-31T05:46:23.802Z,76.20
2018-05-31T05:48:51.382Z,77.40
2018-05-31T05:51:18.990Z,76.10
2018-05-31T05:53:46.579Z,75.50
2018-05-31T05:56:14.946Z,71.70
2018-05-31T05:58:42.535Z,71.70
2018-05-31T06:01:10.125Z,70.30
2018-05-31T06:03:37.710Z,68.60
2018-05-31T06:06:05.388Z,67.30
2018-05-31T06:08:32.966Z,67.90
2018-05-31T06:11:00.588Z,64.70
2018-05-31T06:13:28.164Z,63.00
2018-05-31T06:15:55.739Z,61.40
2018-05-31T06:18:23.353Z,59.50
2018-05-31T06:20:50.927Z,58.70
2018-05-31T06:23:18.537Z,57.70
2018-05-31T06:25:46.131Z,55.80
2018-05-31T06:28:14.504Z,53.70
2018-05-31T06:30:42.851Z,52.50
2018-05-31T06:33:10.456Z,52.40
2018-05-31T06:35:38.039Z,52.20
2018-05-31T06:38:05.631Z,51.10
2018-05-31T06:40:33.268Z,51.60
2018-05-31T06:43:00.937Z,50.70
2018-05-31T06:45:28.443Z,51.10
2018-05-31T06:47:56.034Z,50.20
2018-05-31T06:50:23.592Z,50.00
2018-05-31T06:52:51.209Z,48.20
2018-05-31T06:55:18.829Z,47.20
2018-05-31T06:57:46.403Z,47.80
2018-05-31T07:00:13.971Z,46.20
2018-05-31T07:02:41.558Z,45.10
2018-05-31T07:05:09.143Z,43.80
2018-05-31T07:07:36.731Z,44.60
2018-05-31T07:10:04.327Z,45.10
2018-05-31T07:12:31.923Z,43.50
2018-05-31T07:14:59.500Z,44.20
2018-05-31T07:17:27.071Z,42.10
2018-05-31T07:19:54.661Z,41.00
2018-05-31T07:22:22.227Z,41.80
2018-05-31T07:24:49.818Z,42.10
2018-05-31T07:27:17.408Z,40.50
2018-05-31T07:29:44.991Z,41.00
2018-05-31T07:32:12.562Z,41.10
2018-05-31T07:34:40.163Z,39.40
2018-05-31T07:37:07.732Z,39.70
2018-05-31T07:39:35.327Z,42.00
2018-05-31T07:42:02.911Z,39.30
2018-05-31T07:44:31.271Z,40.70
2018-05-31T07:46:58.839Z,40.80
2018-05-31T07:49:26.433Z,39.30
2018-05-31T07:51:54.007Z,39.20
2018-05-31T07:54:21.591Z,38.70
2018-05-31T07:56:49.168Z,39.80
2018-05-31T07:59:16.759Z,38.70
2018-05-31T08:01:44.319Z,37.70
2018-05-31T08:04:12.756Z,36.50
2018-05-31T08:06:40.318Z,36.40
2018-05-31T08:09:07.943Z,36.00
2018-05-31T08:11:35.498Z,36.70
2018-05-31T08:14:03.111Z,36.40
2018-05-31T08:16:30.679Z,36.90
2018-05-31T08:18:58.268Z,36.70
2018-05-31T08:21:25.858Z,37.10
2018-05-31T08:23:53.492Z,35.80
2018-05-31T08:26:21.063Z,36.60
2018-05-31T08:28:48.621Z,34.70
2018-05-31T08:31:16.243Z,36.40
2018-05-31T08:33:44.578Z,35.60
2018-05-31T08:36:12.174Z,35.80
2018-05-31T08:38:39.761Z,37.00
2018-05-31T08:41:07.350Z,35.20
2018-05-31T08:43:34.905Z,34.00
2018-05-31T08:46:02.492Z,33.50
2018-05-31T08:48:30.058Z,35.40
2018-05-31T08:50:57.712Z,35.50
2018-05-31T08:53:25.263Z,34.40
2018-05-31T08:55:52.853Z,34.70
2018-05-31T08:58:20.418Z,34.40
2018-05-31T09:00:48.800Z,35.10
2018-05-31T09:03:17.140Z,32.90
2018-05-31T09:05:44.725Z,33.20
2018-05-31T09:08:12.303Z,33.30
2018-05-31T09:10:39.903Z,32.60
2018-05-31T09:13:07.467Z,33.90
2018-05-31T09:15:35.059Z,33.40
2018-05-31T09:18:03.389Z,32.70
2018-05-31T09:20:30.978Z,32.80
2018-05-31T09:22:58.539Z,31.80
2018-05-31T09:25:26.126Z,31.80
2018-05-31T09:27:54.459Z,32.00
2018-05-31T09:30:22.055Z,31.90
2018-05-31T09:32:49.623Z,30.60
2018-05-31T09:35:17.217Z,30.60
2018-05-31T09:37:44.797Z,31.60
2018-05-31T09:40:13.151Z,31.00
2018-05-31T09:42:40.714Z,30.90
2018-05-31T09:45:08.286Z,30.70
2018-05-31T09:47:35.879Z,32.10
2018-05-31T09:50:03.446Z,31.30
2018-05-31T09:52:31.799Z,30.70
2018-05-31T09:54:59.375Z,30.80
2018-05-31T09:57:26.968Z,30.60
2018-05-31T09:59:56.806Z,30.90
2018-05-31T10:02:24.416Z,31.60
2018-05-31T10:04:52.889Z,31.80
2018-05-31T10:07:20.499Z,31.80
2018-05-31T10:09:48.065Z,31.00
2018-05-31T10:12:15.653Z,31.50
2018-05-31T10:14:43.214Z,33.70
2018-05-31T10:17:10.871Z,33.80
2018-05-31T10:19:38.515Z,33.70
2018-05-31T10:22:06.887Z,34.20
2018-05-31T10:24:34.522Z,34.80
2018-05-31T10:27:02.108Z,34.10
2018-05-31T10:29:29.676Z,35.10
2018-05-31T10:31:57.263Z,36.40
2018-05-31T10:34:24.832Z,36.60
2018-05-31T10:36:52.440Z,37.50
2018-05-31T10:39:20.004Z,38.50
2018-05-31T10:41:47.607Z,39.80
2018-05-31T10:44:15.186Z,39.40
2018-05-31T10:46:42.754Z,39.70
2018-05-31T10:49:10.363Z,39.80
2018-05-31T10:51:37.935Z,39.60
2018-05-31T10:54:05.514Z,42.00
2018-05-31T10:56:33.833Z,41.50
2018-05-31T10:59:01.424Z,41.40
2018-05-31T11:01:28.995Z,41.30
2018-05-31T11:03:56.587Z,42.30
2018-05-31T11:06:24.150Z,42.70
2018-05-31T11:08:51.751Z,42.40
2018-05-31T11:11:19.318Z,42.80
2018-05-31T11:13:46.911Z,43.10
2018-05-31T11:16:14.470Z,43.80
2018-05-31T11:18:42.058Z,44.40
2018-05-31T11:21:09.625Z,44.30
2018-05-31T11:23:37.347Z,44.70
2018-05-31T11:26:04.917Z,44.60
2018-05-31T11:28:32.539Z,44.40
2018-05-31T11:31:00.107Z,44.90
2018-05-31T11:33:27.709Z,44.70
2018-05-31T11:35:55.282Z,45.70
2018-05-31T11:38:23.047Z,45.70
2018-05-31T11:40:50.611Z,44.90
2018-05-31T11:43:18.205Z,46.10
2018-05-31T11:45:45.778Z,44.90
2018-05-31T11:48:13.368Z,44.90
2018-05-31T11:50:40.931Z,45.20
2018-05-31T11:53:08.546Z,46.20
2018-05-31T11:55:36.118Z,46.70
2018-05-31T11:58:03.680Z,46.10
2018-05-31T12:00:31.275Z,46.80
2018-05-31T12:02:58.851Z,46.30
2018-05-31T12:05:26.444Z,47.50
2018-05-31T12:07:54.008Z,47.30
2018-05-31T12:10:21.607Z,48.60
2018-05-31T12:12:49.180Z,48.20
2018-05-31T12:15:16.770Z,48.10
2018-05-31T12:17:44.336Z,48.30
2018-05-31T12:20:11.932Z,50.20
2018-05-31T12:22:39.502Z,51.90
2018-05-31T12:25:07.132Z,52.00
2018-05-31T12:27:35.468Z,53.70
2018-05-31T12:30:03.063Z,53.80
2018-05-31T12:32:31.404Z,53.30
2018-05-31T12:34:59.004Z,53.30
2018-05-31T12:37:27.343Z,53.20
2018-05-31T12:39:54.934Z,53.00
2018-05-31T12:42:22.497Z,53.60
2018-05-31T12:44:50.105Z,52.40
2018-05-31T12:47:17.674Z,53.00
2018-05-31T12:49:45.267Z,53.30
2018-05-31T12:52:12.835Z,54.40
2018-05-31T12:54:41.197Z,52.80
2018-05-31T12:57:08.777Z,52.80
2018-05-31T12:59:37.131Z,53.00
2018-05-31T13:02:04.703Z,53.00
2018-05-31T13:04:32.299Z,54.40
2018-05-31T13:06:59.859Z,52.80
2018-05-31T13:09:27.428Z,53.70
2018-05-31T13:11:59.665Z,54.10
2018-05-31T13:14:27.227Z,54.00
2018-05-31T13:16:55.606Z,53.40
2018-05-31T13:19:23.945Z,52.70
2018-05-31T13:21:51.538Z,52.70
2018-05-31T13:24:19.896Z,52.60
2018-05-31T13:26:48.291Z,52.80
2018-05-31T13:29:16.628Z,52.20
2018-05-31T13:31:44.222Z,52.20
2018-05-31T13:34:11.801Z,50.70
2018-05-31T13:36:40.156Z,51.20
2018-05-31T13:39:08.487Z,49.80
2018-05-31T13:41:36.067Z,49.80
2018-05-31T13:44:03.636Z,49.10
2018-05-31T13:46:31.225Z,49.20
2018-05-31T13:48:59.551Z,50.50
2018-05-31T13:51:27.155Z,50.50
2018-05-31T13:53:55.495Z,48.40
2018-05-31T13:56:23.087Z,48.40
2018-05-31T13:58:50.660Z,48.70
2018-05-31T14:01:19.015Z,46.90
2018-05-31T14:03:46.582Z,46.90
2018-05-31T14:06:15.132Z,46.80
2018-05-31T14:08:42.792Z,46.70
2018-05-31T14:11:13.256Z,46.30
2018-05-31T14:13:40.896Z,47.70
2018-05-31T14:18:53.680Z,47.90
2018-05-31T14:21:22.131Z,45.00
2018-05-31T14:23:50.463Z,45.30
2018-05-31T14:26:18.041Z,45.20
2018-05-31T14:28:47.144Z,47.50
2018-05-31T14:31:14.719Z,47.50
2018-05-31T14:33:43.088Z,46.70
2018-05-31T14:36:11.437Z,47.10
2018-05-31T14:38:39.029Z,47.10
2018-05-31T14:41:06.602Z,46.90
2018-05-31T14:43:34.950Z,48.20
2018-05-31T14:46:02.514Z,48.20
2018-05-31T14:48:30.098Z,47.30
2018-05-31T14:50:57.659Z,46.60
2018-05-31T14:53:26.054Z,47.10
2018-05-31T14:55:53.639Z,47.10
2018-05-31T14:58:21.226Z,46.30
2018-05-31T15:00:48.800Z,46.10
2018-05-31T15:03:17.162Z,44.60
2018-05-31T15:05:44.743Z,44.60
2018-05-31T15:08:12.325Z,45.70
2018-05-31T15:10:39.897Z,46.20
2018-05-31T15:13:07.487Z,44.40
2018-05-31T15:15:35.050Z,45.50
2018-05-31T15:18:02.683Z,45.60
2018-05-31T15:20:30.257Z,46.40
2018-05-31T15:22:57.857Z,44.50
2018-05-31T15:25:25.573Z,43.70
2018-05-31T15:27:53.817Z,45.00
2018-05-31T15:30:21.737Z,45.90
2018-05-31T15:32:52.250Z,46.10
2018-05-31T15:35:21.492Z,46.10
2018-05-31T15:37:49.862Z,46.00
2018-05-31T15:40:17.435Z,46.00
2018-05-31T15:42:46.003Z,45.70
2018-05-31T15:45:13.590Z,46.50
2018-05-31T15:47:41.155Z,45.90
2018-05-31T15:50:08.766Z,47.80
2018-05-31T15:52:36.347Z,47.60
2018-05-31T15:55:04.703Z,48.00
2018-05-31T15:57:32.272Z,47.90
2018-05-31T15:59:59.858Z,48.20
2018-05-31T16:02:27.432Z,47.40
2018-05-31T16:04:55.035Z,47.80
2018-05-31T16:07:22.593Z,47.20
2018-05-31T16:09:50.186Z,47.60
2018-05-31T16:12:18.527Z,48.80
2018-05-31T16:14:46.120Z,48.70
2018-05-31T16:17:13.691Z,48.50
2018-05-31T16:19:41.299Z,49.00
2018-05-31T16:22:08.871Z,48.90
2018-05-31T16:24:37.460Z,48.30
2018-05-31T16:27:05.037Z,48.30
2018-05-31T16:29:33.391Z,48.60
2018-05-31T16:32:00.957Z,48.60
2018-05-31T16:34:28.547Z,48.70
2018-05-31T16:36:56.112Z,49.90
2018-05-31T16:39:23.698Z,49.30
2018-05-31T16:41:51.259Z,49.10
2018-05-31T16:44:18.846Z,48.80
2018-05-31T16:46:46.420Z,48.60
2018-05-31T16:49:14.019Z,49.50
2018-05-31T16:51:41.610Z,49.80
2018-05-31T16:54:09.962Z,49.70
2018-05-31T16:56:37.529Z,49.60
2018-05-31T16:59:05.122Z,49.30
2018-05-31T17:01:32.698Z,49.40
2018-05-31T17:04:00.284Z,48.10
2018-05-31T17:06:27.847Z,49.50
2018-05-31T17:08:55.447Z,49.30
2018-05-31T17:11:23.007Z,49.60
2018-05-31T17:13:50.580Z,49.70
2018-05-31T17:16:18.190Z,49.90
2018-05-31T17:18:45.747Z,50.10
2018-05-31T17:21:14.147Z,49.80
2018-05-31T17:23:41.959Z,50.10
2018-05-31T17:26:09.550Z,50.60
2018-05-31T17:28:37.122Z,51.20
2018-05-31T17:31:04.714Z,50.90
2018-05-31T17:33:32.275Z,51.30
2018-05-31T17:36:00.724Z,51.50
2018-05-31T17:38:28.321Z,51.10
2018-05-31T17:40:55.930Z,50.30
2018-05-31T17:43:23.499Z,51.30
2018-05-31T17:45:51.097Z,52.80
2018-05-31T17:48:18.666Z,51.60
2018-05-31T17:50:46.265Z,53.10
2018-05-31T17:53:13.843Z,53.30
2018-05-31T17:55:41.431Z,53.60
2018-05-31T17:58:09.011Z,52.60
2018-05-31T18:00:36.612Z,53.40
2018-05-31T18:03:04.171Z,52.70
2018-05-31T18:05:31.759Z,51.60
2018-05-31T18:07:59.332Z,52.80
2018-05-31T18:10:26.910Z,52.70
2018-05-31T18:12:55.239Z,52.80
2018-05-31T18:15:22.829Z,52.80
2018-05-31T18:17:50.400Z,56.10
2018-05-31T18:20:18.021Z,57.10
2018-05-31T18:22:45.598Z,58.00
2018-05-31T18:25:13.193Z,58.80
2018-05-31T18:27:41.538Z,60.30
2018-05-31T18:30:09.146Z,60.40
2018-05-31T18:32:36.727Z,61.30
2018-05-31T18:35:04.795Z,60.80
2018-05-31T18:37:32.783Z,61.80
2018-05-31T18:40:00.975Z,62.10
2018-05-31T18:42:28.634Z,61.80
2018-05-31T18:44:56.309Z,60.80
2018-05-31T18:47:23.981Z,61.80
2018-05-31T18:49:52.647Z,62.10
2018-05-31T18:52:20.244Z,62.10
2018-05-31T18:54:47.828Z,61.30
2018-05-31T18:57:15.796Z,60.90
2018-05-31T18:59:43.453Z,61.90
2018-05-31T19:02:11.036Z,61.50
2018-05-31T19:04:38.598Z,63.60
2018-05-31T19:07:06.658Z,64.30
2018-05-31T19:09:37.205Z,65.00
2018-05-31T19:12:04.848Z,62.80
2018-05-31T19:14:32.672Z,62.50
2018-05-31T19:17:01.050Z,64.00
2018-05-31T19:19:34.947Z,65.60
2018-05-31T19:22:03.312Z,67.10
2018-05-31T19:24:36.477Z,67.00
2018-05-31T19:27:04.114Z,66.20
2018-05-31T19:29:31.678Z,67.30
2018-05-31T19:31:59.735Z,68.90
2018-05-31T19:34:28.310Z,68.80
2018-05-31T19:37:01.519Z,71.20
2018-05-31T19:39:29.085Z,70.60
2018-05-31T19:41:56.678Z,72.20
2018-05-31T19:44:29.879Z,70.50
2018-05-31T19:46:57.458Z,72.00
2018-05-31T19:49:25.911Z,72.90
2018-05-31T19:51:59.403Z,72.80
2018-05-31T19:54:28.146Z,73.00
2018-05-31T19:56:55.762Z,70.20
2018-05-31T19:59:28.859Z,73.00
2018-05-31T20:02:04.467Z,74.20
2018-05-31T20:04:32.096Z,74.60
2018-05-31T20:06:59.786Z,75.20
2018-05-31T20:09:27.359Z,73.40
2018-05-31T20:11:54.947Z,74.20
2018-05-31T20:14:22.542Z,74.10
2018-05-31T20:16:50.887Z,73.30
2018-05-31T20:19:18.464Z,73.10
2018-05-31T20:21:46.065Z,73.20
2018-05-31T20:24:13.631Z,77.80
2018-05-31T20:26:41.224Z,74.40
2018-05-31T20:29:09.566Z,74.80
2018-05-31T20:31:37.172Z,74.50
2018-05-31T20:34:05.200Z,74.70
2018-05-31T20:36:32.768Z,75.40
2018-05-31T20:39:00.381Z,73.70
2018-05-31T20:41:27.974Z,73.40
2018-05-31T20:43:55.569Z,75.00
2018-05-31T20:46:23.899Z,75.70
2018-05-31T20:48:51.496Z,75.60
2018-05-31T20:51:19.063Z,75.00
2018-05-31T20:53:48.349Z,77.50
2018-05-31T20:56:15.919Z,77.60
2018-05-31T20:58:43.501Z,74.40
2018-05-31T21:01:11.071Z,73.40
2018-05-31T21:03:38.664Z,75.00
2018-05-31T21:06:06.231Z,76.10
2018-05-31T21:08:33.824Z,72.70
2018-05-31T21:11:01.396Z,76.10
2018-05-31T21:13:29.005Z,79.00
2018-05-31T21:15:56.568Z,76.50
2018-05-31T21:18:24.155Z,75.60
2018-05-31T21:20:51.731Z,78.60
2018-05-31T21:23:20.088Z,76.70
2018-05-31T21:25:47.654Z,76.70
2018-05-31T21:28:15.258Z,77.50
2018-05-31T21:30:42.850Z,75.70
2018-05-31T21:33:10.434Z,74.60
2018-05-31T21:35:38.853Z,72.40
2018-05-31T21:38:06.387Z,72.10
2018-05-31T21:40:34.726Z,71.30
2018-05-31T21:43:02.294Z,71.20
2018-05-31T21:45:29.888Z,70.10
2018-05-31T21:47:57.446Z,68.80
2018-05-31T21:50:25.046Z,69.30
2018-05-31T21:52:52.618Z,69.10
2018-05-31T21:55:20.208Z,69.00
2018-05-31T21:57:48.542Z,67.80
2018-05-31T22:00:41.632Z,67.80
2018-05-31T22:03:09.222Z,68.30
2018-05-31T22:05:36.828Z,68.90
2018-05-31T22:08:04.372Z,68.90
2018-05-31T22:10:31.963Z,70.20
2018-05-31T22:12:59.522Z,70.70
2018-05-31T22:15:27.108Z,71.70
2018-05-31T22:17:55.458Z,71.10
2018-05-31T22:20:23.048Z,71.10
2018-05-31T22:22:50.615Z,71.00
2018-05-31T22:25:18.207Z,70.50
2018-05-31T22:27:46.568Z,73.10
2018-05-31T22:30:14.171Z,73.10
2018-05-31T22:32:41.755Z,74.70
2018-05-31T22:35:09.348Z,74.20
2018-05-31T22:37:36.920Z,72.90
2018-05-31T22:40:04.528Z,75.10
2018-05-31T22:42:32.096Z,74.80
2018-05-31T22:45:01.298Z,75.80
2018-05-31T22:47:28.866Z,75.70
2018-05-31T22:49:56.460Z,74.50
2018-05-31T22:52:24.024Z,73.40
2018-05-31T22:54:51.626Z,77.40
2018-05-31T22:57:19.200Z,76.30
2018-05-31T22:59:46.804Z,76.40
2018-05-31T23:02:14.374Z,76.90
2018-05-31T23:04:41.967Z,76.30
2018-05-31T23:07:10.322Z,77.00
2018-05-31T23:09:37.956Z,76.80
2018-05-31T23:12:05.537Z,78.00
2018-05-31T23:14:33.131Z,74.30
2018-05-31T23:17:00.713Z,76.60
2018-05-31T23:19:28.310Z,75.50
2018-05-31T23:21:55.878Z,75.90
2018-05-31T23:24:24.987Z,78.00
2018-05-31T23:26:53.312Z,75.80
2018-05-31T23:29:20.919Z,75.70
2018-05-31T23:31:49.278Z,77.70
2018-05-31T23:34:16.860Z,77.80
2018-05-31T23:36:44.449Z,77.20
2018-05-31T23:39:12.083Z,76.40
2018-05-31T23:41:39.675Z,77.90
2018-05-31T23:44:07.260Z,77.90
2018-05-31T23:46:34.855Z,77.80
2018-05-31T23:49:02.438Z,79.60
2018-05-31T23:51:30.052Z,78.60
2018-05-31T23:53:57.615Z,75.80
2018-05-31T23:56:25.207Z,75.80
2018-05-31T23:58:52.775Z,76.80
